Burlington, VT

4:19 PM EDT on August 04, 2015 (GMT -0400)
APRSWXNET | | Change Station
CLOSE
Current Station
Personal Weather Station
Location: Winooski, VT
Elevation: 310 ft
Nearby Weather Stations
Active Advisory: Severe Thunderstorm Watch Active Notice: Local Storm Report

Elev 310 ft 44.50 °N, 73.20 °W | Updated 24 minutes ago

Overcast
Overcast
75 °F
Feels Like 78 °F
N
3
Wind Variable Wind from WNW
Gusts 8.0 mph

Today
High -- | Low -- °F
--% Chance of Precip.
Yesterday
High -- | Low -- °F
Precip. -- in
5:42 AM 8:14 PM
Waning Gibbous, 75% visible
Pressure 29.81 in
Visibility 10.0 miles
Clouds Few 8000 ft
Mostly Cloudy 10000 ft
Mostly Cloudy 11000 ft
Heat Index 78 °F
Dew Point 58 °F
Humidity 55%
Rainfall in
Snow Depth Not available.
UV 3 out of 12
Pollen 4.60 out of 12
Air Quality Not available.
Flu Activity Not available.
METAR KBTV 041954Z 31007KT 10SM FEW080 BKN100 BKN110 25/13 A2981 RMK AO2 SLP093 T02500133

More Conditions Fewer Conditions

Pressure 29.81 in
Visibility 10.0 miles
Clouds Few 8000 ft
Mostly Cloudy 10000 ft
Mostly Cloudy 11000 ft
Heat Index 78 °F
Dew Point 58 °F
Humidity 55%
Rainfall in
Snow Depth Not available.
UV 3 out of 12
Pollen 4.60 out of 12
Air Quality Not available.
Flu Activity Not available.
METAR KBTV 041954Z 31007KT 10SM FEW080 BKN100 BKN110 25/13 A2981 RMK AO2 SLP093 T02500133

More Conditions Fewer Conditions

10-Day Weather Forecast

×

Almanac

Astronomy

Aug. 04, 2015 Rise Set
Actual Time
Civil Twilight
Nautical Twilight
Astronomical Twilight
Moon
Length of Visible Light
Length of Day
Tomorrow will be .
, % of the Moon is Illuminated

Today's Extremes

State Highs State Lows

Community

WunderPhotos

Upload Photos

1,843,962 photos uploaded!

WunderBlogs® & News

Nearby

Air Quality

  Air Quality AQ Index Pollutant
Not available.

Snow Depth

Station Depth Elevation

Earthquake Activity

City Distance Mag. Time & Date
Minimum magnitude displayed is 2.5.

Coastal Water Temperatures

Place Temperature

Stations

Nearby Weather Stations

Station Location Temp. Windchill Dew Point Humidity Wind Precip. Elev Updated Type
                   
Severe Thunderstorm Watch
Statement as of 2:24 PM EDT on August 04, 2015

Severe Thunderstorm Watch 469 remains in effect until 800 PM EDT

VT
. Vermont counties included are

Addison Bennington Caledonia
Chittenden Essex Franklin
LaMoille Orange Orleans
Rutland Washington Windham
Windsor